sensor_id;sensor_type;location;lat;lon;timestamp;P1;durP1;ratioP1;P2;durP2;ratioP2
28960;SDS011;16068;42.896;20.868;2024-01-15T00:01:47;132.52;;;60.25;;
28960;SDS011;16068;42.896;20.868;2024-01-15T00:04:37;124.85;;;58.15;;
28960;SDS011;16068;42.896;20.868;2024-01-15T00:07:24;129.60;;;59.30;;
28960;SDS011;16068;42.896;20.868;2024-01-15T00:10:10;140.60;;;65.60;;
28960;SDS011;16068;42.896;20.868;2024-01-15T00:12:56;155.00;;;70.20;;
28960;SDS011;16068;42.896;20.868;2024-01-15T00:15:43;140.18;;;60.83;;
28960;SDS011;16068;42.896;20.868;2024-01-15T00:18:29;127.20;;;58.10;;
28960;SDS011;16068;42.896;20.868;2024-01-15T00:21:16;105.93;;;50.60;;
28960;SDS011;16068;42.896;20.868;2024-01-15T00:24:02;93.15;;;43.72;;
28960;SDS011;16068;42.896;20.868;2024-01-15T00:26:48;100.20;;;47.13;;
28960;SDS011;16068;42.896;20.868;2024-01-15T00:29:34;88.10;;;43.72;;
28960;SDS011;16068;42.896;20.868;2024-01-15T00:32:20;95.28;;;44.08;;
28960;SDS011;16068;42.896;20.868;2024-01-15T00:35:06;99.20;;;45.15;;
28960;SDS011;16068;42.896;20.868;2024-01-15T00:37:53;95.07;;;44.47;;
28960;SDS011;16068;42.896;20.868;2024-01-15T00:40:38;106.32;;;47.42;;
28960;SDS011;16068;42.896;20.868;2024-01-15T00:43:24;100.40;;;45.85;;
28960;SDS011;16068;42.896;20.868;2024-01-15T00:46:10;77.75;;;36.80;;
28960;SDS011;16068;42.896;20.868;2024-01-15T00:48:57;66.03;;;32.63;;
28960;SDS011;16068;42.896;20.868;2024-01-15T00:51:43;76.22;;;36.22;;
28960;SDS011;16068;42.896;20.868;2024-01-15T00:54:29;67.82;;;32.65;;
28960;SDS011;16068;42.896;20.868;2024-01-15T00:57:15;70.68;;;34.45;;
28960;SDS011;16068;42.896;20.868;2024-01-15T01:00:01;73.32;;;34.20;;
28960;SDS011;16068;42.896;20.868;2024-01-15T01:02:51;83.82;;;39.78;;
28960;SDS011;16068;42.896;20.868;2024-01-15T01:05:37;73.80;;;35.63;;
28960;SDS011;16068;42.896;20.868;2024-01-15T01:08:23;79.28;;;37.42;;
28960;SDS011;16068;42.896;20.868;2024-01-15T01:11:17;73.03;;;34.28;;
28960;SDS011;16068;42.896;20.868;2024-01-15T01:14:03;72.60;;;34.85;;
28960;SDS011;16068;42.896;20.868;2024-01-15T01:16:49;73.28;;;32.20;;
28960;SDS011;16068;42.896;20.868;2024-01-15T01:19:35;72.00;;;34.00;;
28960;SDS011;16068;42.896;20.868;2024-01-15T01:22:21;77.10;;;33.17;;
28960;SDS011;16068;42.896;20.868;2024-01-15T01:25:07;77.35;;;33.13;;
28960;SDS011;16068;42.896;20.868;2024-01-15T01:27:54;64.22;;;32.45;;
28960;SDS011;16068;42.896;20.868;2024-01-15T01:30:40;74.40;;;34.78;;
28960;SDS011;16068;42.896;20.868;2024-01-15T01:33:26;84.10;;;35.45;;
28960;SDS011;16068;42.896;20.868;2024-01-15T01:36:14;66.22;;;32.17;;
28960;SDS011;16068;42.896;20.868;2024-01-15T01:39:00;66.53;;;32.67;;
28960;SDS011;16068;42.896;20.868;2024-01-15T01:41:46;69.70;;;34.70;;
28960;SDS011;16068;42.896;20.868;2024-01-15T01:44:32;68.00;;;33.42;;
28960;SDS011;16068;42.896;20.868;2024-01-15T01:47:18;75.38;;;36.58;;
28960;SDS011;16068;42.896;20.868;2024-01-15T01:50:05;77.07;;;35.28;;
28960;SDS011;16068;42.896;20.868;2024-01-15T01:52:53;63.58;;;29.83;;
28960;SDS011;16068;42.896;20.868;2024-01-15T01:55:38;64.63;;;29.25;;
28960;SDS011;16068;42.896;20.868;2024-01-15T01:58:25;64.45;;;30.67;;
28960;SDS011;16068;42.896;20.868;2024-01-15T02:01:14;54.15;;;28.23;;
28960;SDS011;16068;42.896;20.868;2024-01-15T02:04:01;60.63;;;29.95;;
28960;SDS011;16068;42.896;20.868;2024-01-15T02:06:47;62.47;;;31.02;;
28960;SDS011;16068;42.896;20.868;2024-01-15T02:09:34;58.58;;;29.05;;
28960;SDS011;16068;42.896;20.868;2024-01-15T02:12:21;54.53;;;27.50;;
28960;SDS011;16068;42.896;20.868;2024-01-15T02:15:07;54.63;;;26.77;;
28960;SDS011;16068;42.896;20.868;2024-01-15T02:18:00;57.53;;;27.00;;
28960;SDS011;16068;42.896;20.868;2024-01-15T02:20:50;52.28;;;26.27;;
28960;SDS011;16068;42.896;20.868;2024-01-15T02:23:36;54.95;;;24.90;;
28960;SDS011;16068;42.896;20.868;2024-01-15T02:26:23;55.95;;;26.35;;
28960;SDS011;16068;42.896;20.868;2024-01-15T02:29:09;52.33;;;24.90;;
28960;SDS011;16068;42.896;20.868;2024-01-15T02:31:55;53.80;;;26.52;;
28960;SDS011;16068;42.896;20.868;2024-01-15T02:34:41;49.45;;;24.02;;
28960;SDS011;16068;42.896;20.868;2024-01-15T02:37:27;53.35;;;26.77;;
28960;SDS011;16068;42.896;20.868;2024-01-15T02:40:13;46.60;;;24.42;;
28960;SDS011;16068;42.896;20.868;2024-01-15T02:42:59;65.38;;;28.40;;
28960;SDS011;16068;42.896;20.868;2024-01-15T02:45:45;52.42;;;25.30;;
28960;SDS011;16068;42.896;20.868;2024-01-15T02:48:32;56.88;;;27.33;;
28960;SDS011;16068;42.896;20.868;2024-01-15T02:51:20;57.47;;;27.17;;
28960;SDS011;16068;42.896;20.868;2024-01-15T02:54:06;58.88;;;27.60;;
28960;SDS011;16068;42.896;20.868;2024-01-15T02:56:52;57.17;;;28.40;;
28960;SDS011;16068;42.896;20.868;2024-01-15T02:59:39;63.38;;;27.60;;
28960;SDS011;16068;42.896;20.868;2024-01-15T03:02:25;58.53;;;28.30;;
28960;SDS011;16068;42.896;20.868;2024-01-15T03:05:11;55.05;;;27.98;;
28960;SDS011;16068;42.896;20.868;2024-01-15T03:07:57;58.72;;;29.05;;
28960;SDS011;16068;42.896;20.868;2024-01-15T03:10:44;59.28;;;30.10;;
28960;SDS011;16068;42.896;20.868;2024-01-15T03:13:30;61.92;;;29.38;;
28960;SDS011;16068;42.896;20.868;2024-01-15T03:16:16;54.28;;;27.65;;
28960;SDS011;16068;42.896;20.868;2024-01-15T03:19:02;59.85;;;29.35;;
28960;SDS011;16068;42.896;20.868;2024-01-15T03:21:48;68.38;;;30.38;;
28960;SDS011;16068;42.896;20.868;2024-01-15T03:24:34;69.18;;;33.25;;
28960;SDS011;16068;42.896;20.868;2024-01-15T03:27:22;73.07;;;33.13;;
28960;SDS011;16068;42.896;20.868;2024-01-15T03:30:08;67.78;;;33.70;;
28960;SDS011;16068;42.896;20.868;2024-01-15T03:32:58;62.30;;;31.17;;
28960;SDS011;16068;42.896;20.868;2024-01-15T03:35:44;67.15;;;33.33;;
28960;SDS011;16068;42.896;20.868;2024-01-15T03:38:30;78.40;;;38.17;;
28960;SDS011;16068;42.896;20.868;2024-01-15T03:41:16;71.40;;;37.70;;
28960;SDS011;16068;42.896;20.868;2024-01-15T03:44:03;75.50;;;38.72;;
28960;SDS011;16068;42.896;20.868;2024-01-15T03:46:49;73.45;;;37.28;;
28960;SDS011;16068;42.896;20.868;2024-01-15T03:49:35;74.55;;;35.85;;
28960;SDS011;16068;42.896;20.868;2024-01-15T03:52:22;76.63;;;39.20;;
28960;SDS011;16068;42.896;20.868;2024-01-15T03:55:08;78.95;;;38.20;;
28960;SDS011;16068;42.896;20.868;2024-01-15T03:57:55;81.68;;;38.30;;
28960;SDS011;16068;42.896;20.868;2024-01-15T04:00:42;70.53;;;37.55;;
28960;SDS011;16068;42.896;20.868;2024-01-15T04:03:28;80.28;;;41.58;;
28960;SDS011;16068;42.896;20.868;2024-01-15T04:06:14;80.63;;;40.40;;
28960;SDS011;16068;42.896;20.868;2024-01-15T04:09:00;75.57;;;39.38;;
28960;SDS011;16068;42.896;20.868;2024-01-15T04:11:46;90.93;;;45.22;;
28960;SDS011;16068;42.896;20.868;2024-01-15T04:14:32;89.97;;;41.53;;
28960;SDS011;16068;42.896;20.868;2024-01-15T04:17:17;99.85;;;45.28;;
28960;SDS011;16068;42.896;20.868;2024-01-15T04:20:04;82.15;;;41.80;;
28960;SDS011;16068;42.896;20.868;2024-01-15T04:22:51;89.75;;;43.83;;
28960;SDS011;16068;42.896;20.868;2024-01-15T04:25:37;91.72;;;44.33;;
28960;SDS011;16068;42.896;20.868;2024-01-15T04:28:28;88.53;;;41.25;;
28960;SDS011;16068;42.896;20.868;2024-01-15T04:31:24;89.03;;;41.28;;
28960;SDS011;16068;42.896;20.868;2024-01-15T04:34:12;85.63;;;40.42;;
28960;SDS011;16068;42.896;20.868;2024-01-15T04:36:58;77.55;;;38.95;;
28960;SDS011;16068;42.896;20.868;2024-01-15T04:39:44;74.35;;;39.47;;
28960;SDS011;16068;42.896;20.868;2024-01-15T04:42:32;76.88;;;39.03;;
28960;SDS011;16068;42.896;20.868;2024-01-15T04:45:18;79.00;;;39.83;;
28960;SDS011;16068;42.896;20.868;2024-01-15T04:48:05;84.35;;;39.03;;
28960;SDS011;16068;42.896;20.868;2024-01-15T04:50:53;77.47;;;39.55;;
28960;SDS011;16068;42.896;20.868;2024-01-15T04:53:39;81.80;;;40.53;;
28960;SDS011;16068;42.896;20.868;2024-01-15T04:56:31;74.57;;;37.55;;
28960;SDS011;16068;42.896;20.868;2024-01-15T04:59:17;75.03;;;39.72;;
28960;SDS011;16068;42.896;20.868;2024-01-15T05:02:03;79.97;;;40.30;;
28960;SDS011;16068;42.896;20.868;2024-01-15T05:04:49;78.35;;;37.47;;
28960;SDS011;16068;42.896;20.868;2024-01-15T05:07:41;69.53;;;35.20;;
28960;SDS011;16068;42.896;20.868;2024-01-15T05:10:27;88.25;;;39.70;;
28960;SDS011;16068;42.896;20.868;2024-01-15T05:13:13;74.30;;;38.05;;
28960;SDS011;16068;42.896;20.868;2024-01-15T05:16:00;73.00;;;38.45;;
28960;SDS011;16068;42.896;20.868;2024-01-15T05:18:46;87.18;;;42.38;;
28960;SDS011;16068;42.896;20.868;2024-01-15T05:21:32;83.07;;;42.40;;
28960;SDS011;16068;42.896;20.868;2024-01-15T05:24:18;95.47;;;44.67;;
28960;SDS011;16068;42.896;20.868;2024-01-15T05:27:04;105.75;;;54.97;;
28960;SDS011;16068;42.896;20.868;2024-01-15T05:29:50;110.00;;;57.10;;
28960;SDS011;16068;42.896;20.868;2024-01-15T05:32:36;169.52;;;81.53;;
28960;SDS011;16068;42.896;20.868;2024-01-15T05:35:22;151.35;;;73.75;;
28960;SDS011;16068;42.896;20.868;2024-01-15T05:38:08;118.90;;;57.13;;
28960;SDS011;16068;42.896;20.868;2024-01-15T05:40:55;114.70;;;57.22;;
28960;SDS011;16068;42.896;20.868;2024-01-15T05:43:41;115.13;;;55.85;;
28960;SDS011;16068;42.896;20.868;2024-01-15T05:46:27;110.10;;;54.30;;
28960;SDS011;16068;42.896;20.868;2024-01-15T05:49:13;116.65;;;52.85;;
28960;SDS011;16068;42.896;20.868;2024-01-15T05:52:00;121.43;;;58.75;;
28960;SDS011;16068;42.896;20.868;2024-01-15T05:54:46;126.15;;;60.10;;
28960;SDS011;16068;42.896;20.868;2024-01-15T05:57:32;173.05;;;61.45;;
28960;SDS011;16068;42.896;20.868;2024-01-15T06:00:18;130.68;;;59.58;;
28960;SDS011;16068;42.896;20.868;2024-01-15T06:03:04;116.05;;;55.47;;
28960;SDS011;16068;42.896;20.868;2024-01-15T06:05:50;120.03;;;55.08;;
28960;SDS011;16068;42.896;20.868;2024-01-15T06:08:36;98.53;;;47.75;;
28960;SDS011;16068;42.896;20.868;2024-01-15T06:11:23;81.65;;;40.95;;
28960;SDS011;16068;42.896;20.868;2024-01-15T06:14:15;81.05;;;42.05;;
28960;SDS011;16068;42.896;20.868;2024-01-15T06:17:01;81.05;;;39.65;;
28960;SDS011;16068;42.896;20.868;2024-01-15T06:19:47;70.53;;;37.15;;
28960;SDS011;16068;42.896;20.868;2024-01-15T06:22:33;80.60;;;40.90;;
28960;SDS011;16068;42.896;20.868;2024-01-15T06:25:19;95.75;;;43.88;;
28960;SDS011;16068;42.896;20.868;2024-01-15T06:28:05;101.05;;;48.78;;
28960;SDS011;16068;42.896;20.868;2024-01-15T06:30:51;101.32;;;48.70;;
28960;SDS011;16068;42.896;20.868;2024-01-15T06:33:37;105.05;;;51.92;;
28960;SDS011;16068;42.896;20.868;2024-01-15T06:36:23;95.38;;;44.95;;
28960;SDS011;16068;42.896;20.868;2024-01-15T06:39:10;80.82;;;41.65;;
28960;SDS011;16068;42.896;20.868;2024-01-15T06:41:56;95.25;;;46.33;;
28960;SDS011;16068;42.896;20.868;2024-01-15T06:44:42;127.82;;;57.88;;
28960;SDS011;16068;42.896;20.868;2024-01-15T06:47:28;117.55;;;53.67;;
28960;SDS011;16068;42.896;20.868;2024-01-15T06:50:15;109.07;;;50.78;;
28960;SDS011;16068;42.896;20.868;2024-01-15T06:53:09;105.47;;;50.20;;
28960;SDS011;16068;42.896;20.868;2024-01-15T06:55:54;90.65;;;45.80;;
28960;SDS011;16068;42.896;20.868;2024-01-15T06:58:41;95.45;;;44.00;;
28960;SDS011;16068;42.896;20.868;2024-01-15T07:01:27;89.32;;;43.75;;
28960;SDS011;16068;42.896;20.868;2024-01-15T07:04:13;87.13;;;43.83;;
28960;SDS011;16068;42.896;20.868;2024-01-15T07:06:59;79.38;;;39.85;;
28960;SDS011;16068;42.896;20.868;2024-01-15T07:09:45;91.38;;;41.40;;
28960;SDS011;16068;42.896;20.868;2024-01-15T07:12:31;77.40;;;37.38;;
28960;SDS011;16068;42.896;20.868;2024-01-15T07:15:17;89.90;;;40.65;;
28960;SDS011;16068;42.896;20.868;2024-01-15T07:18:03;69.00;;;35.83;;
28960;SDS011;16068;42.896;20.868;2024-01-15T07:20:50;76.50;;;39.63;;
28960;SDS011;16068;42.896;20.868;2024-01-15T07:23:36;85.95;;;41.03;;
28960;SDS011;16068;42.896;20.868;2024-01-15T07:26:22;79.03;;;40.15;;
28960;SDS011;16068;42.896;20.868;2024-01-15T07:29:08;94.70;;;40.83;;
28960;SDS011;16068;42.896;20.868;2024-01-15T07:31:54;82.28;;;40.25;;
28960;SDS011;16068;42.896;20.868;2024-01-15T07:34:40;84.78;;;39.50;;
28960;SDS011;16068;42.896;20.868;2024-01-15T07:37:28;85.68;;;40.63;;
28960;SDS011;16068;42.896;20.868;2024-01-15T07:40:14;84.38;;;40.80;;
28960;SDS011;16068;42.896;20.868;2024-01-15T07:43:03;81.55;;;41.33;;
28960;SDS011;16068;42.896;20.868;2024-01-15T07:45:55;97.78;;;44.92;;
28960;SDS011;16068;42.896;20.868;2024-01-15T07:48:40;95.57;;;45.67;;
28960;SDS011;16068;42.896;20.868;2024-01-15T07:51:27;95.10;;;47.00;;
28960;SDS011;16068;42.896;20.868;2024-01-15T07:54:13;86.90;;;45.55;;
28960;SDS011;16068;42.896;20.868;2024-01-15T07:57:04;76.82;;;42.67;;
28960;SDS011;16068;42.896;20.868;2024-01-15T07:59:50;81.72;;;43.22;;
28960;SDS011;16068;42.896;20.868;2024-01-15T08:02:37;81.30;;;41.17;;
28960;SDS011;16068;42.896;20.868;2024-01-15T08:05:26;88.97;;;45.08;;
28960;SDS011;16068;42.896;20.868;2024-01-15T08:08:12;85.10;;;44.45;;
28960;SDS011;16068;42.896;20.868;2024-01-15T08:10:59;95.95;;;46.08;;
28960;SDS011;16068;42.896;20.868;2024-01-15T08:13:45;95.40;;;48.75;;
28960;SDS011;16068;42.896;20.868;2024-01-15T08:16:32;99.90;;;48.00;;
28960;SDS011;16068;42.896;20.868;2024-01-15T08:19:18;113.18;;;52.08;;
28960;SDS011;16068;42.896;20.868;2024-01-15T08:22:06;112.47;;;51.72;;
28960;SDS011;16068;42.896;20.868;2024-01-15T08:24:52;123.82;;;58.97;;
28960;SDS011;16068;42.896;20.868;2024-01-15T08:27:43;114.32;;;48.22;;
28960;SDS011;16068;42.896;20.868;2024-01-15T08:30:29;100.15;;;46.35;;
28960;SDS011;16068;42.896;20.868;2024-01-15T08:33:15;94.10;;;43.65;;
28960;SDS011;16068;42.896;20.868;2024-01-15T08:36:06;90.03;;;43.15;;
28960;SDS011;16068;42.896;20.868;2024-01-15T08:38:54;84.57;;;40.60;;
28960;SDS011;16068;42.896;20.868;2024-01-15T08:41:40;81.35;;;39.85;;
28960;SDS011;16068;42.896;20.868;2024-01-15T08:44:26;76.30;;;38.22;;
28960;SDS011;16068;42.896;20.868;2024-01-15T08:47:12;73.32;;;37.58;;
28960;SDS011;16068;42.896;20.868;2024-01-15T08:49:57;89.57;;;42.80;;
28960;SDS011;16068;42.896;20.868;2024-01-15T08:52:45;86.47;;;41.85;;
28960;SDS011;16068;42.896;20.868;2024-01-15T08:55:32;77.57;;;39.97;;
28960;SDS011;16068;42.896;20.868;2024-01-15T08:58:18;78.45;;;38.88;;
28960;SDS011;16068;42.896;20.868;2024-01-15T09:01:04;79.10;;;42.08;;
28960;SDS011;16068;42.896;20.868;2024-01-15T09:03:50;107.28;;;49.38;;
28960;SDS011;16068;42.896;20.868;2024-01-15T09:06:36;104.40;;;48.88;;
28960;SDS011;16068;42.896;20.868;2024-01-15T09:09:22;102.93;;;44.33;;
28960;SDS011;16068;42.896;20.868;2024-01-15T09:12:08;95.40;;;42.38;;
28960;SDS011;16068;42.896;20.868;2024-01-15T09:14:54;82.35;;;40.97;;
28960;SDS011;16068;42.896;20.868;2024-01-15T09:17:41;77.65;;;36.85;;
28960;SDS011;16068;42.896;20.868;2024-01-15T09:20:28;71.13;;;33.85;;
28960;SDS011;16068;42.896;20.868;2024-01-15T09:23:14;78.43;;;35.78;;
28960;SDS011;16068;42.896;20.868;2024-01-15T09:26:00;74.90;;;36.50;;
28960;SDS011;16068;42.896;20.868;2024-01-15T09:28:46;72.18;;;35.53;;
28960;SDS011;16068;42.896;20.868;2024-01-15T09:31:36;67.88;;;33.17;;
28960;SDS011;16068;42.896;20.868;2024-01-15T09:34:22;67.70;;;33.33;;
28960;SDS011;16068;42.896;20.868;2024-01-15T09:37:14;67.65;;;31.67;;
28960;SDS011;16068;42.896;20.868;2024-01-15T09:40:20;67.05;;;30.75;;
28960;SDS011;16068;42.896;20.868;2024-01-15T09:43:11;55.40;;;29.05;;
28960;SDS011;16068;42.896;20.868;2024-01-15T09:45:57;66.47;;;30.52;;
28960;SDS011;16068;42.896;20.868;2024-01-15T09:48:52;63.25;;;30.05;;
28960;SDS011;16068;42.896;20.868;2024-01-15T09:51:38;65.97;;;30.02;;
28960;SDS011;16068;42.896;20.868;2024-01-15T09:54:24;71.53;;;32.60;;
28960;SDS011;16068;42.896;20.868;2024-01-15T09:57:11;67.55;;;31.80;;
28960;SDS011;16068;42.896;20.868;2024-01-15T10:00:01;71.05;;;31.50;;
28960;SDS011;16068;42.896;20.868;2024-01-15T10:02:49;55.33;;;29.70;;
28960;SDS011;16068;42.896;20.868;2024-01-15T10:05:36;73.95;;;32.38;;
28960;SDS011;16068;42.896;20.868;2024-01-15T10:08:23;85.97;;;37.45;;
28960;SDS011;16068;42.896;20.868;2024-01-15T10:11:10;66.03;;;33.17;;
28960;SDS011;16068;42.896;20.868;2024-01-15T10:13:56;63.30;;;30.20;;
28960;SDS011;16068;42.896;20.868;2024-01-15T10:16:42;72.55;;;36.97;;
28960;SDS011;16068;42.896;20.868;2024-01-15T10:19:30;77.65;;;33.20;;
28960;SDS011;16068;42.896;20.868;2024-01-15T10:22:17;128.75;;;57.20;;
28960;SDS011;16068;42.896;20.868;2024-01-15T10:25:11;68.70;;;34.28;;
28960;SDS011;16068;42.896;20.868;2024-01-15T10:28:02;69.03;;;32.78;;
28960;SDS011;16068;42.896;20.868;2024-01-15T10:30:51;70.70;;;33.95;;
28960;SDS011;16068;42.896;20.868;2024-01-15T10:33:42;85.60;;;38.38;;
28960;SDS011;16068;42.896;20.868;2024-01-15T10:36:28;85.97;;;40.58;;
28960;SDS011;16068;42.896;20.868;2024-01-15T10:39:20;75.40;;;35.65;;
28960;SDS011;16068;42.896;20.868;2024-01-15T10:42:06;73.82;;;35.22;;
28960;SDS011;16068;42.896;20.868;2024-01-15T10:44:53;71.30;;;31.02;;
28960;SDS011;16068;42.896;20.868;2024-01-15T10:47:43;73.78;;;33.55;;
28960;SDS011;16068;42.896;20.868;2024-01-15T10:50:30;91.28;;;39.53;;
28960;SDS011;16068;42.896;20.868;2024-01-15T10:53:18;80.55;;;36.33;;
28960;SDS011;16068;42.896;20.868;2024-01-15T10:56:05;85.65;;;39.58;;
28960;SDS011;16068;42.896;20.868;2024-01-15T10:58:52;74.18;;;36.83;;
28960;SDS011;16068;42.896;20.868;2024-01-15T11:01:44;75.20;;;35.57;;
28960;SDS011;16068;42.896;20.868;2024-01-15T11:04:34;83.97;;;38.05;;
28960;SDS011;16068;42.896;20.868;2024-01-15T11:07:21;82.32;;;37.88;;
28960;SDS011;16068;42.896;20.868;2024-01-15T11:16:18;77.35;;;37.17;;
28960;SDS011;16068;42.896;20.868;2024-01-15T11:19:04;85.32;;;42.13;;
28960;SDS011;16068;42.896;20.868;2024-01-15T11:21:52;93.60;;;39.40;;
28960;SDS011;16068;42.896;20.868;2024-01-15T11:24:40;71.65;;;36.15;;
28960;SDS011;16068;42.896;20.868;2024-01-15T11:27:39;78.72;;;37.95;;
28960;SDS011;16068;42.896;20.868;2024-01-15T11:30:27;85.88;;;39.95;;
28960;SDS011;16068;42.896;20.868;2024-01-15T11:33:32;100.60;;;48.90;;
28960;SDS011;16068;42.896;20.868;2024-01-15T11:36:18;102.60;;;49.97;;
28960;SDS011;16068;42.896;20.868;2024-01-15T12:47:51;114.38;;;48.47;;
28960;SDS011;16068;42.896;20.868;2024-01-15T12:50:38;126.57;;;58.10;;
28960;SDS011;16068;42.896;20.868;2024-01-15T12:53:36;130.75;;;58.70;;
28960;SDS011;16068;42.896;20.868;2024-01-15T12:56:22;122.03;;;54.97;;
28960;SDS011;16068;42.896;20.868;2024-01-15T12:59:08;115.82;;;55.83;;
28960;SDS011;16068;42.896;20.868;2024-01-15T13:01:54;124.13;;;55.55;;
28960;SDS011;16068;42.896;20.868;2024-01-15T13:04:40;279.58;;;130.43;;
28960;SDS011;16068;42.896;20.868;2024-01-15T13:10:52;274.17;;;130.52;;
28960;SDS011;16068;42.896;20.868;2024-01-15T13:13:42;271.42;;;130.45;;
28960;SDS011;16068;42.896;20.868;2024-01-15T13:16:28;227.77;;;110.00;;
28960;SDS011;16068;42.896;20.868;2024-01-15T13:19:22;205.73;;;101.30;;
28960;SDS011;16068;42.896;20.868;2024-01-15T13:25:00;127.07;;;59.75;;
28960;SDS011;16068;42.896;20.868;2024-01-15T13:27:46;125.20;;;51.83;;
28960;SDS011;16068;42.896;20.868;2024-01-15T13:30:34;121.63;;;51.85;;
28960;SDS011;16068;42.896;20.868;2024-01-15T13:33:20;111.38;;;52.17;;
28960;SDS011;16068;42.896;20.868;2024-01-15T13:36:10;101.30;;;50.95;;
28960;SDS011;16068;42.896;20.868;2024-01-15T13:38:56;104.30;;;44.33;;
28960;SDS011;16068;42.896;20.868;2024-01-15T13:41:44;102.63;;;45.85;;
28960;SDS011;16068;42.896;20.868;2024-01-15T13:44:30;80.32;;;41.60;;
28960;SDS011;16068;42.896;20.868;2024-01-15T13:47:16;87.95;;;42.03;;
28960;SDS011;16068;42.896;20.868;2024-01-15T13:50:04;83.28;;;40.03;;
28960;SDS011;16068;42.896;20.868;2024-01-15T13:52:50;92.68;;;46.35;;
28960;SDS011;16068;42.896;20.868;2024-01-15T13:55:36;84.20;;;45.20;;
28960;SDS011;16068;42.896;20.868;2024-01-15T13:58:22;107.80;;;49.63;;
28960;SDS011;16068;42.896;20.868;2024-01-15T14:01:11;134.77;;;60.30;;
28960;SDS011;16068;42.896;20.868;2024-01-15T14:03:57;133.93;;;59.70;;
28960;SDS011;16068;42.896;20.868;2024-01-15T14:06:44;153.02;;;62.30;;
28960;SDS011;16068;42.896;20.868;2024-01-15T14:09:30;132.38;;;57.83;;
28960;SDS011;16068;42.896;20.868;2024-01-15T14:12:18;114.18;;;53.75;;
28960;SDS011;16068;42.896;20.868;2024-01-15T14:15:04;146.73;;;58.28;;
28960;SDS011;16068;42.896;20.868;2024-01-15T14:17:52;131.80;;;61.22;;
28960;SDS011;16068;42.896;20.868;2024-01-15T14:20:38;183.23;;;68.82;;
28960;SDS011;16068;42.896;20.868;2024-01-15T14:23:24;160.20;;;72.90;;
28960;SDS011;16068;42.896;20.868;2024-01-15T14:26:10;140.48;;;66.88;;
28960;SDS011;16068;42.896;20.868;2024-01-15T14:28:57;163.98;;;75.38;;
28960;SDS011;16068;42.896;20.868;2024-01-15T14:31:43;203.90;;;84.97;;
28960;SDS011;16068;42.896;20.868;2024-01-15T14:34:33;156.20;;;71.53;;
28960;SDS011;16068;42.896;20.868;2024-01-15T14:37:21;139.38;;;67.95;;
28960;SDS011;16068;42.896;20.868;2024-01-15T14:40:07;143.88;;;61.75;;
28960;SDS011;16068;42.896;20.868;2024-01-15T14:42:58;125.32;;;56.40;;
28960;SDS011;16068;42.896;20.868;2024-01-15T14:45:44;114.43;;;51.58;;
28960;SDS011;16068;42.896;20.868;2024-01-15T14:48:31;120.20;;;54.70;;
28960;SDS011;16068;42.896;20.868;2024-01-15T14:51:17;82.63;;;40.22;;
28960;SDS011;16068;42.896;20.868;2024-01-15T14:54:03;74.20;;;35.42;;
28960;SDS011;16068;42.896;20.868;2024-01-15T14:56:49;74.57;;;29.83;;
28960;SDS011;16068;42.896;20.868;2024-01-15T14:59:36;61.95;;;31.15;;
28960;SDS011;16068;42.896;20.868;2024-01-15T15:02:23;58.50;;;26.25;;
28960;SDS011;16068;42.896;20.868;2024-01-15T15:05:09;44.75;;;21.27;;
28960;SDS011;16068;42.896;20.868;2024-01-15T15:07:57;48.60;;;22.35;;
28960;SDS011;16068;42.896;20.868;2024-01-15T15:10:43;48.85;;;21.50;;
28960;SDS011;16068;42.896;20.868;2024-01-15T15:13:29;50.15;;;20.08;;
28960;SDS011;16068;42.896;20.868;2024-01-15T15:16:29;120.50;;;24.88;;
28960;SDS011;16068;42.896;20.868;2024-01-15T15:19:16;90.97;;;26.90;;
28960;SDS011;16068;42.896;20.868;2024-01-15T15:22:03;55.40;;;26.30;;
28960;SDS011;16068;42.896;20.868;2024-01-15T15:24:50;56.50;;;29.20;;
28960;SDS011;16068;42.896;20.868;2024-01-15T15:27:36;61.97;;;29.63;;
28960;SDS011;16068;42.896;20.868;2024-01-15T15:30:23;75.18;;;34.25;;
28960;SDS011;16068;42.896;20.868;2024-01-15T15:33:09;69.18;;;32.10;;
28960;SDS011;16068;42.896;20.868;2024-01-15T15:35:55;90.00;;;32.70;;
28960;SDS011;16068;42.896;20.868;2024-01-15T15:38:41;76.22;;;37.63;;
28960;SDS011;16068;42.896;20.868;2024-01-15T15:41:27;70.35;;;35.20;;
28960;SDS011;16068;42.896;20.868;2024-01-15T15:44:14;79.75;;;34.85;;
28960;SDS011;16068;42.896;20.868;2024-01-15T15:47:02;78.00;;;33.70;;
28960;SDS011;16068;42.896;20.868;2024-01-15T15:49:48;75.25;;;37.40;;
28960;SDS011;16068;42.896;20.868;2024-01-15T15:52:35;60.85;;;30.85;;
28960;SDS011;16068;42.896;20.868;2024-01-15T15:55:21;62.42;;;29.85;;
28960;SDS011;16068;42.896;20.868;2024-01-15T15:58:09;39.65;;;21.45;;
28960;SDS011;16068;42.896;20.868;2024-01-15T16:00:55;40.30;;;19.75;;
28960;SDS011;16068;42.896;20.868;2024-01-15T16:03:41;33.70;;;17.08;;
28960;SDS011;16068;42.896;20.868;2024-01-15T16:06:27;34.83;;;15.45;;
28960;SDS011;16068;42.896;20.868;2024-01-15T16:09:14;32.60;;;15.68;;
28960;SDS011;16068;42.896;20.868;2024-01-15T16:12:00;37.03;;;14.00;;
28960;SDS011;16068;42.896;20.868;2024-01-15T16:14:47;40.58;;;14.45;;
28960;SDS011;16068;42.896;20.868;2024-01-15T16:17:33;36.47;;;15.30;;
28960;SDS011;16068;42.896;20.868;2024-01-15T16:20:39;32.33;;;15.27;;
28960;SDS011;16068;42.896;20.868;2024-01-15T16:23:45;27.75;;;15.20;;
28960;SDS011;16068;42.896;20.868;2024-01-15T16:26:53;30.33;;;15.45;;
28960;SDS011;16068;42.896;20.868;2024-01-15T16:29:39;27.02;;;13.07;;
28960;SDS011;16068;42.896;20.868;2024-01-15T16:32:25;36.78;;;17.35;;
28960;SDS011;16068;42.896;20.868;2024-01-15T16:35:13;37.30;;;15.15;;
28960;SDS011;16068;42.896;20.868;2024-01-15T16:37:59;24.52;;;14.25;;
28960;SDS011;16068;42.896;20.868;2024-01-15T16:40:46;26.48;;;13.65;;
28960;SDS011;16068;42.896;20.868;2024-01-15T16:43:32;24.23;;;13.60;;
28960;SDS011;16068;42.896;20.868;2024-01-15T16:46:18;30.92;;;13.70;;
28960;SDS011;16068;42.896;20.868;2024-01-15T16:49:04;27.10;;;14.43;;
28960;SDS011;16068;42.896;20.868;2024-01-15T16:51:58;27.30;;;14.57;;
28960;SDS011;16068;42.896;20.868;2024-01-15T16:54:45;23.42;;;13.32;;
28960;SDS011;16068;42.896;20.868;2024-01-15T16:57:31;32.15;;;13.68;;
28960;SDS011;16068;42.896;20.868;2024-01-15T17:00:17;34.55;;;13.75;;
28960;SDS011;16068;42.896;20.868;2024-01-15T17:03:03;26.88;;;13.70;;
28960;SDS011;16068;42.896;20.868;2024-01-15T17:05:49;25.30;;;12.23;;
28960;SDS011;16068;42.896;20.868;2024-01-15T17:08:36;20.80;;;11.10;;
28960;SDS011;16068;42.896;20.868;2024-01-15T17:11:22;29.70;;;13.27;;
28960;SDS011;16068;42.896;20.868;2024-01-15T17:14:10;36.63;;;19.77;;
28960;SDS011;16068;42.896;20.868;2024-01-15T17:16:56;36.35;;;17.50;;
28960;SDS011;16068;42.896;20.868;2024-01-15T17:19:45;34.10;;;15.43;;
28960;SDS011;16068;42.896;20.868;2024-01-15T17:22:31;38.70;;;19.00;;